sensor_id;sensor_type;location;lat;lon;timestamp;P1;durP1;ratioP1;P2;durP2;ratioP2
72437;SDS011;60444;43.534;-5.674;2023-04-30T00:00:33;17.10;;;9.37;;
72437;SDS011;60444;43.534;-5.674;2023-04-30T00:03:01;18.37;;;9.20;;
72437;SDS011;60444;43.534;-5.674;2023-04-30T00:05:28;15.95;;;7.88;;
72437;SDS011;60444;43.534;-5.674;2023-04-30T00:07:53;14.70;;;8.07;;
72437;SDS011;60444;43.534;-5.674;2023-04-30T00:10:19;18.10;;;9.23;;
72437;SDS011;60444;43.534;-5.674;2023-04-30T00:12:44;18.70;;;8.70;;
72437;SDS011;60444;43.534;-5.674;2023-04-30T00:15:10;20.40;;;10.60;;
72437;SDS011;60444;43.534;-5.674;2023-04-30T00:17:36;19.30;;;10.60;;
72437;SDS011;60444;43.534;-5.674;2023-04-30T00:20:01;19.58;;;10.93;;
72437;SDS011;60444;43.534;-5.674;2023-04-30T00:22:27;18.70;;;10.07;;
72437;SDS011;60444;43.534;-5.674;2023-04-30T00:24:53;18.45;;;10.32;;
72437;SDS011;60444;43.534;-5.674;2023-04-30T00:27:18;21.33;;;11.03;;
72437;SDS011;60444;43.534;-5.674;2023-04-30T00:29:47;21.00;;;9.77;;
72437;SDS011;60444;43.534;-5.674;2023-04-30T00:32:12;19.30;;;10.55;;
72437;SDS011;60444;43.534;-5.674;2023-04-30T00:34:38;21.13;;;10.33;;
72437;SDS011;60444;43.534;-5.674;2023-04-30T00:37:03;23.42;;;11.93;;
72437;SDS011;60444;43.534;-5.674;2023-04-30T00:39:29;21.90;;;10.97;;
72437;SDS011;60444;43.534;-5.674;2023-04-30T00:41:54;21.43;;;11.33;;
72437;SDS011;60444;43.534;-5.674;2023-04-30T00:44:20;22.37;;;12.00;;
72437;SDS011;60444;43.534;-5.674;2023-04-30T00:46:45;24.67;;;11.93;;
72437;SDS011;60444;43.534;-5.674;2023-04-30T00:49:10;21.00;;;11.33;;
72437;SDS011;60444;43.534;-5.674;2023-04-30T00:51:36;19.87;;;10.67;;
72437;SDS011;60444;43.534;-5.674;2023-04-30T00:54:05;20.65;;;10.40;;
72437;SDS011;60444;43.534;-5.674;2023-04-30T00:56:31;19.10;;;10.05;;
72437;SDS011;60444;43.534;-5.674;2023-04-30T00:58:57;18.33;;;9.30;;
72437;SDS011;60444;43.534;-5.674;2023-04-30T01:01:26;19.95;;;9.45;;
72437;SDS011;60444;43.534;-5.674;2023-04-30T01:03:55;18.80;;;9.75;;
72437;SDS011;60444;43.534;-5.674;2023-04-30T01:06:21;15.98;;;8.32;;
72437;SDS011;60444;43.534;-5.674;2023-04-30T01:08:47;15.83;;;7.80;;
72437;SDS011;60444;43.534;-5.674;2023-04-30T01:16:29;15.95;;;8.57;;
72437;SDS011;60444;43.534;-5.674;2023-04-30T01:19:19;16.95;;;7.82;;
72437;SDS011;60444;43.534;-5.674;2023-04-30T01:22:11;12.57;;;6.07;;
72437;SDS011;60444;43.534;-5.674;2023-04-30T01:30:34;12.55;;;5.13;;
72437;SDS011;60444;43.534;-5.674;2023-04-30T01:33:00;11.48;;;5.78;;
72437;SDS011;60444;43.534;-5.674;2023-04-30T01:35:42;11.23;;;5.30;;
72437;SDS011;60444;43.534;-5.674;2023-04-30T01:41:43;10.38;;;4.53;;
72437;SDS011;60444;43.534;-5.674;2023-04-30T01:44:19;9.93;;;4.30;;
72437;SDS011;60444;43.534;-5.674;2023-04-30T01:54:59;10.30;;;4.50;;
72437;SDS011;60444;43.534;-5.674;2023-04-30T01:57:31;10.13;;;3.65;;
72437;SDS011;60444;43.534;-5.674;2023-04-30T02:00:02;9.55;;;4.25;;
72437;SDS011;60444;43.534;-5.674;2023-04-30T02:02:29;10.43;;;3.80;;
72437;SDS011;60444;43.534;-5.674;2023-04-30T02:04:55;9.02;;;4.00;;
72437;SDS011;60444;43.534;-5.674;2023-04-30T02:10:06;8.10;;;3.50;;
72437;SDS011;60444;43.534;-5.674;2023-04-30T02:12:32;8.48;;;3.50;;
72437;SDS011;60444;43.534;-5.674;2023-04-30T02:14:58;8.07;;;2.90;;
72437;SDS011;60444;43.534;-5.674;2023-04-30T02:17:23;10.88;;;4.05;;
72437;SDS011;60444;43.534;-5.674;2023-04-30T02:19:49;9.63;;;4.50;;
72437;SDS011;60444;43.534;-5.674;2023-04-30T02:22:14;9.83;;;4.13;;
72437;SDS011;60444;43.534;-5.674;2023-04-30T02:24:40;8.73;;;3.30;;
72437;SDS011;60444;43.534;-5.674;2023-04-30T02:27:05;8.83;;;3.33;;
72437;SDS011;60444;43.534;-5.674;2023-04-30T02:29:31;7.07;;;3.00;;
72437;SDS011;60444;43.534;-5.674;2023-04-30T02:31:57;9.38;;;3.55;;
72437;SDS011;60444;43.534;-5.674;2023-04-30T02:34:23;7.87;;;3.10;;
72437;SDS011;60444;43.534;-5.674;2023-04-30T02:36:49;8.93;;;3.25;;
72437;SDS011;60444;43.534;-5.674;2023-04-30T02:39:14;9.57;;;3.87;;
72437;SDS011;60444;43.534;-5.674;2023-04-30T02:41:40;9.35;;;3.95;;
72437;SDS011;60444;43.534;-5.674;2023-04-30T02:44:05;8.40;;;3.33;;
72437;SDS011;60444;43.534;-5.674;2023-04-30T02:46:31;10.30;;;3.60;;
72437;SDS011;60444;43.534;-5.674;2023-04-30T02:48:56;9.07;;;3.33;;
72437;SDS011;60444;43.534;-5.674;2023-04-30T02:51:22;7.60;;;3.30;;
72437;SDS011;60444;43.534;-5.674;2023-04-30T02:53:47;7.77;;;2.87;;
72437;SDS011;60444;43.534;-5.674;2023-04-30T02:56:13;8.30;;;2.92;;
72437;SDS011;60444;43.534;-5.674;2023-04-30T02:58:39;9.67;;;3.53;;
72437;SDS011;60444;43.534;-5.674;2023-04-30T03:01:05;7.63;;;3.25;;
72437;SDS011;60444;43.534;-5.674;2023-04-30T03:03:30;7.53;;;3.33;;
72437;SDS011;60444;43.534;-5.674;2023-04-30T03:05:57;8.53;;;2.80;;
72437;SDS011;60444;43.534;-5.674;2023-04-30T03:08:23;7.50;;;3.22;;
72437;SDS011;60444;43.534;-5.674;2023-04-30T03:10:49;8.13;;;3.40;;
72437;SDS011;60444;43.534;-5.674;2023-04-30T03:13:15;7.30;;;3.30;;
72437;SDS011;60444;43.534;-5.674;2023-04-30T03:15:41;9.48;;;3.90;;
72437;SDS011;60444;43.534;-5.674;2023-04-30T03:18:06;9.53;;;3.23;;
72437;SDS011;60444;43.534;-5.674;2023-04-30T03:20:32;9.93;;;4.07;;
72437;SDS011;60444;43.534;-5.674;2023-04-30T03:22:57;8.27;;;3.72;;
72437;SDS011;60444;43.534;-5.674;2023-04-30T03:25:23;9.10;;;4.03;;
72437;SDS011;60444;43.534;-5.674;2023-04-30T03:27:48;9.50;;;3.40;;
72437;SDS011;60444;43.534;-5.674;2023-04-30T03:30:14;8.07;;;3.80;;
72437;SDS011;60444;43.534;-5.674;2023-04-30T03:32:39;9.17;;;3.70;;
72437;SDS011;60444;43.534;-5.674;2023-04-30T03:35:05;7.77;;;3.80;;
72437;SDS011;60444;43.534;-5.674;2023-04-30T03:37:31;10.98;;;3.78;;
72437;SDS011;60444;43.534;-5.674;2023-04-30T03:39:56;8.63;;;3.13;;
72437;SDS011;60444;43.534;-5.674;2023-04-30T03:42:22;8.77;;;3.28;;
72437;SDS011;60444;43.534;-5.674;2023-04-30T03:44:47;7.70;;;3.50;;
72437;SDS011;60444;43.534;-5.674;2023-04-30T03:47:13;8.90;;;3.83;;
72437;SDS011;60444;43.534;-5.674;2023-04-30T03:49:39;9.00;;;3.35;;
72437;SDS011;60444;43.534;-5.674;2023-04-30T03:52:04;8.23;;;3.77;;
72437;SDS011;60444;43.534;-5.674;2023-04-30T03:54:31;8.38;;;3.58;;
72437;SDS011;60444;43.534;-5.674;2023-04-30T03:56:58;9.77;;;4.20;;
72437;SDS011;60444;43.534;-5.674;2023-04-30T03:59:24;8.57;;;3.63;;
72437;SDS011;60444;43.534;-5.674;2023-04-30T04:01:50;8.47;;;3.83;;
72437;SDS011;60444;43.534;-5.674;2023-04-30T04:04:16;7.67;;;3.10;;
72437;SDS011;60444;43.534;-5.674;2023-04-30T04:06:41;8.80;;;3.27;;
72437;SDS011;60444;43.534;-5.674;2023-04-30T04:09:07;8.93;;;3.42;;
72437;SDS011;60444;43.534;-5.674;2023-04-30T04:11:33;7.93;;;2.90;;
72437;SDS011;60444;43.534;-5.674;2023-04-30T04:13:58;8.00;;;2.97;;
72437;SDS011;60444;43.534;-5.674;2023-04-30T04:16:25;6.83;;;2.67;;
72437;SDS011;60444;43.534;-5.674;2023-04-30T04:18:50;7.20;;;2.47;;
72437;SDS011;60444;43.534;-5.674;2023-04-30T04:21:16;6.40;;;2.25;;
72437;SDS011;60444;43.534;-5.674;2023-04-30T04:23:42;6.47;;;1.97;;
72437;SDS011;60444;43.534;-5.674;2023-04-30T04:26:08;5.85;;;2.33;;
72437;SDS011;60444;43.534;-5.674;2023-04-30T04:28:34;7.97;;;2.07;;
72437;SDS011;60444;43.534;-5.674;2023-04-30T04:31:01;5.22;;;1.77;;
72437;SDS011;60444;43.534;-5.674;2023-04-30T04:33:27;4.70;;;1.80;;
72437;SDS011;60444;43.534;-5.674;2023-04-30T04:35:53;6.10;;;1.83;;
72437;SDS011;60444;43.534;-5.674;2023-04-30T04:38:19;6.90;;;2.00;;
72437;SDS011;60444;43.534;-5.674;2023-04-30T04:40:54;6.03;;;1.88;;
72437;SDS011;60444;43.534;-5.674;2023-04-30T04:43:20;5.63;;;2.13;;
72437;SDS011;60444;43.534;-5.674;2023-04-30T04:45:46;5.57;;;2.00;;
72437;SDS011;60444;43.534;-5.674;2023-04-30T04:48:12;5.85;;;2.15;;
72437;SDS011;60444;43.534;-5.674;2023-04-30T04:50:38;5.68;;;2.00;;
72437;SDS011;60444;43.534;-5.674;2023-04-30T04:53:04;6.80;;;2.63;;
72437;SDS011;60444;43.534;-5.674;2023-04-30T04:55:29;5.93;;;2.20;;
72437;SDS011;60444;43.534;-5.674;2023-04-30T04:57:55;7.13;;;2.10;;
72437;SDS011;60444;43.534;-5.674;2023-04-30T05:00:21;6.20;;;2.17;;
72437;SDS011;60444;43.534;-5.674;2023-04-30T05:02:47;6.22;;;2.35;;
72437;SDS011;60444;43.534;-5.674;2023-04-30T05:05:13;6.22;;;2.60;;
72437;SDS011;60444;43.534;-5.674;2023-04-30T05:07:39;7.93;;;2.87;;
72437;SDS011;60444;43.534;-5.674;2023-04-30T05:10:05;7.32;;;2.97;;
72437;SDS011;60444;43.534;-5.674;2023-04-30T05:12:31;7.75;;;2.75;;
72437;SDS011;60444;43.534;-5.674;2023-04-30T05:14:57;7.13;;;2.90;;
72437;SDS011;60444;43.534;-5.674;2023-04-30T05:17:23;8.50;;;2.90;;
72437;SDS011;60444;43.534;-5.674;2023-04-30T05:19:48;7.57;;;2.77;;
72437;SDS011;60444;43.534;-5.674;2023-04-30T05:22:15;8.57;;;2.90;;
72437;SDS011;60444;43.534;-5.674;2023-04-30T05:24:41;8.85;;;3.58;;
72437;SDS011;60444;43.534;-5.674;2023-04-30T05:27:06;7.83;;;3.30;;
72437;SDS011;60444;43.534;-5.674;2023-04-30T05:29:32;7.53;;;2.75;;
72437;SDS011;60444;43.534;-5.674;2023-04-30T05:31:58;9.17;;;3.43;;
72437;SDS011;60444;43.534;-5.674;2023-04-30T05:34:23;8.85;;;3.22;;
72437;SDS011;60444;43.534;-5.674;2023-04-30T05:36:49;8.17;;;3.10;;
72437;SDS011;60444;43.534;-5.674;2023-04-30T05:39:15;9.05;;;3.53;;
72437;SDS011;60444;43.534;-5.674;2023-04-30T05:41:40;8.70;;;3.00;;
72437;SDS011;60444;43.534;-5.674;2023-04-30T05:44:06;7.37;;;2.97;;
72437;SDS011;60444;43.534;-5.674;2023-04-30T05:46:31;6.93;;;2.92;;
72437;SDS011;60444;43.534;-5.674;2023-04-30T05:48:57;6.37;;;2.30;;
72437;SDS011;60444;43.534;-5.674;2023-04-30T05:51:23;5.60;;;2.13;;
72437;SDS011;60444;43.534;-5.674;2023-04-30T05:53:48;6.22;;;2.10;;
72437;SDS011;60444;43.534;-5.674;2023-04-30T05:56:13;5.97;;;2.20;;
72437;SDS011;60444;43.534;-5.674;2023-04-30T05:58:39;8.17;;;2.80;;
72437;SDS011;60444;43.534;-5.674;2023-04-30T06:01:05;6.10;;;2.57;;
72437;SDS011;60444;43.534;-5.674;2023-04-30T06:03:30;7.35;;;2.30;;
72437;SDS011;60444;43.534;-5.674;2023-04-30T06:05:58;7.38;;;2.60;;
72437;SDS011;60444;43.534;-5.674;2023-04-30T06:08:24;6.60;;;2.10;;
72437;SDS011;60444;43.534;-5.674;2023-04-30T06:10:50;7.37;;;2.37;;
72437;SDS011;60444;43.534;-5.674;2023-04-30T06:13:15;6.80;;;2.20;;
72437;SDS011;60444;43.534;-5.674;2023-04-30T06:15:41;7.00;;;2.70;;
72437;SDS011;60444;43.534;-5.674;2023-04-30T06:18:06;7.23;;;2.40;;
72437;SDS011;60444;43.534;-5.674;2023-04-30T06:20:32;7.63;;;2.50;;
72437;SDS011;60444;43.534;-5.674;2023-04-30T06:22:57;6.97;;;2.20;;
72437;SDS011;60444;43.534;-5.674;2023-04-30T06:25:24;5.95;;;2.45;;
72437;SDS011;60444;43.534;-5.674;2023-04-30T06:27:50;7.70;;;3.08;;
72437;SDS011;60444;43.534;-5.674;2023-04-30T06:30:18;9.00;;;3.40;;
72437;SDS011;60444;43.534;-5.674;2023-04-30T06:32:44;8.35;;;2.67;;
72437;SDS011;60444;43.534;-5.674;2023-04-30T06:35:09;7.13;;;2.77;;
72437;SDS011;60444;43.534;-5.674;2023-04-30T06:37:35;6.05;;;2.70;;
72437;SDS011;60444;43.534;-5.674;2023-04-30T06:40:04;7.82;;;3.28;;
72437;SDS011;60444;43.534;-5.674;2023-04-30T06:42:31;6.73;;;2.53;;
72437;SDS011;60444;43.534;-5.674;2023-04-30T06:45:01;6.63;;;2.60;;
72437;SDS011;60444;43.534;-5.674;2023-04-30T06:47:29;9.73;;;3.97;;
72437;SDS011;60444;43.534;-5.674;2023-04-30T06:50:06;6.90;;;2.83;;
72437;SDS011;60444;43.534;-5.674;2023-04-30T06:52:32;8.15;;;3.00;;
72437;SDS011;60444;43.534;-5.674;2023-04-30T06:54:58;7.70;;;3.17;;
72437;SDS011;60444;43.534;-5.674;2023-04-30T06:57:25;8.85;;;3.70;;
72437;SDS011;60444;43.534;-5.674;2023-04-30T06:59:51;8.52;;;3.22;;
72437;SDS011;60444;43.534;-5.674;2023-04-30T07:02:17;7.95;;;3.53;;
72437;SDS011;60444;43.534;-5.674;2023-04-30T07:04:43;9.77;;;3.93;;
72437;SDS011;60444;43.534;-5.674;2023-04-30T07:07:08;12.83;;;4.20;;
72437;SDS011;60444;43.534;-5.674;2023-04-30T07:09:34;9.13;;;3.83;;
72437;SDS011;60444;43.534;-5.674;2023-04-30T07:12:00;9.80;;;3.72;;
72437;SDS011;60444;43.534;-5.674;2023-04-30T07:14:26;9.83;;;3.97;;
72437;SDS011;60444;43.534;-5.674;2023-04-30T07:16:52;8.82;;;4.18;;
72437;SDS011;60444;43.534;-5.674;2023-04-30T07:19:17;11.20;;;3.80;;
72437;SDS011;60444;43.534;-5.674;2023-04-30T07:21:43;10.25;;;3.90;;
72437;SDS011;60444;43.534;-5.674;2023-04-30T07:24:09;10.60;;;4.65;;
72437;SDS011;60444;43.534;-5.674;2023-04-30T07:26:35;10.27;;;4.10;;
72437;SDS011;60444;43.534;-5.674;2023-04-30T07:29:00;9.18;;;3.90;;
72437;SDS011;60444;43.534;-5.674;2023-04-30T07:31:27;8.30;;;3.50;;
72437;SDS011;60444;43.534;-5.674;2023-04-30T07:33:53;9.07;;;3.63;;
72437;SDS011;60444;43.534;-5.674;2023-04-30T07:36:20;7.60;;;2.95;;
72437;SDS011;60444;43.534;-5.674;2023-04-30T07:38:46;7.40;;;3.03;;
72437;SDS011;60444;43.534;-5.674;2023-04-30T07:41:12;8.03;;;2.80;;
72437;SDS011;60444;43.534;-5.674;2023-04-30T07:43:38;7.65;;;3.35;;
72437;SDS011;60444;43.534;-5.674;2023-04-30T07:46:04;9.77;;;3.73;;
72437;SDS011;60444;43.534;-5.674;2023-04-30T07:48:30;8.05;;;3.22;;
72437;SDS011;60444;43.534;-5.674;2023-04-30T07:50:55;8.00;;;2.30;;
72437;SDS011;60444;43.534;-5.674;2023-04-30T07:53:24;6.37;;;2.57;;
72437;SDS011;60444;43.534;-5.674;2023-04-30T07:55:49;7.03;;;2.25;;
72437;SDS011;60444;43.534;-5.674;2023-04-30T07:58:15;6.13;;;2.17;;
72437;SDS011;60444;43.534;-5.674;2023-04-30T08:00:41;5.70;;;2.20;;
72437;SDS011;60444;43.534;-5.674;2023-04-30T08:03:06;5.50;;;1.77;;
72437;SDS011;60444;43.534;-5.674;2023-04-30T08:05:32;7.32;;;2.60;;
72437;SDS011;60444;43.534;-5.674;2023-04-30T08:07:58;7.00;;;1.90;;
72437;SDS011;60444;43.534;-5.674;2023-04-30T08:10:23;5.85;;;2.30;;
72437;SDS011;60444;43.534;-5.674;2023-04-30T08:12:50;7.45;;;2.65;;
72437;SDS011;60444;43.534;-5.674;2023-04-30T08:15:17;6.87;;;2.10;;
72437;SDS011;60444;43.534;-5.674;2023-04-30T08:17:45;7.20;;;2.40;;
72437;SDS011;60444;43.534;-5.674;2023-04-30T08:20:13;9.57;;;2.45;;
72437;SDS011;60444;43.534;-5.674;2023-04-30T08:22:38;8.63;;;2.37;;
72437;SDS011;60444;43.534;-5.674;2023-04-30T08:25:04;6.45;;;2.67;;
72437;SDS011;60444;43.534;-5.674;2023-04-30T08:27:30;6.53;;;2.78;;
72437;SDS011;60444;43.534;-5.674;2023-04-30T08:29:56;7.97;;;3.38;;
72437;SDS011;60444;43.534;-5.674;2023-04-30T08:32:22;9.00;;;3.30;;
72437;SDS011;60444;43.534;-5.674;2023-04-30T08:34:47;7.80;;;3.20;;
72437;SDS011;60444;43.534;-5.674;2023-04-30T08:37:13;7.15;;;2.90;;
72437;SDS011;60444;43.534;-5.674;2023-04-30T08:39:38;6.20;;;2.40;;
72437;SDS011;60444;43.534;-5.674;2023-04-30T08:42:06;7.07;;;2.37;;
72437;SDS011;60444;43.534;-5.674;2023-04-30T08:44:33;7.32;;;2.38;;
72437;SDS011;60444;43.534;-5.674;2023-04-30T08:47:03;6.85;;;2.17;;
72437;SDS011;60444;43.534;-5.674;2023-04-30T08:49:31;7.65;;;2.63;;
72437;SDS011;60444;43.534;-5.674;2023-04-30T08:51:57;6.53;;;2.63;;
72437;SDS011;60444;43.534;-5.674;2023-04-30T08:54:25;7.90;;;2.95;;
72437;SDS011;60444;43.534;-5.674;2023-04-30T08:56:52;7.47;;;2.45;;
72437;SDS011;60444;43.534;-5.674;2023-04-30T08:59:17;7.07;;;1.93;;
72437;SDS011;60444;43.534;-5.674;2023-04-30T09:01:43;6.50;;;2.63;;
72437;SDS011;60444;43.534;-5.674;2023-04-30T09:04:09;7.07;;;2.20;;
72437;SDS011;60444;43.534;-5.674;2023-04-30T09:06:34;6.67;;;2.67;;
72437;SDS011;60444;43.534;-5.674;2023-04-30T09:09:13;7.00;;;2.63;;
72437;SDS011;60444;43.534;-5.674;2023-04-30T09:11:39;7.03;;;2.92;;
72437;SDS011;60444;43.534;-5.674;2023-04-30T09:14:06;6.57;;;2.73;;
72437;SDS011;60444;43.534;-5.674;2023-04-30T09:16:45;6.07;;;2.40;;
72437;SDS011;60444;43.534;-5.674;2023-04-30T09:19:22;6.43;;;2.30;;
72437;SDS011;60444;43.534;-5.674;2023-04-30T09:21:51;5.97;;;2.22;;
72437;SDS011;60444;43.534;-5.674;2023-04-30T09:24:17;7.10;;;2.65;;
72437;SDS011;60444;43.534;-5.674;2023-04-30T09:26:44;6.03;;;2.30;;
72437;SDS011;60444;43.534;-5.674;2023-04-30T09:29:13;5.97;;;2.08;;
72437;SDS011;60444;43.534;-5.674;2023-04-30T09:31:41;6.97;;;2.50;;
72437;SDS011;60444;43.534;-5.674;2023-04-30T09:34:09;5.00;;;1.53;;
72437;SDS011;60444;43.534;-5.674;2023-04-30T09:36:35;4.88;;;1.60;;
72437;SDS011;60444;43.534;-5.674;2023-04-30T09:39:07;5.07;;;1.65;;
72437;SDS011;60444;43.534;-5.674;2023-04-30T09:41:41;6.82;;;1.70;;
72437;SDS011;60444;43.534;-5.674;2023-04-30T09:44:07;5.33;;;1.50;;
72437;SDS011;60444;43.534;-5.674;2023-04-30T09:46:33;4.90;;;1.30;;
72437;SDS011;60444;43.534;-5.674;2023-04-30T09:49:03;5.68;;;2.15;;
72437;SDS011;60444;43.534;-5.674;2023-04-30T09:51:30;4.72;;;1.50;;
72437;SDS011;60444;43.534;-5.674;2023-04-30T09:53:56;5.03;;;1.60;;
72437;SDS011;60444;43.534;-5.674;2023-04-30T09:56:24;3.50;;;1.00;;
72437;SDS011;60444;43.534;-5.674;2023-04-30T09:58:54;4.57;;;1.15;;
72437;SDS011;60444;43.534;-5.674;2023-04-30T10:01:21;4.77;;;1.33;;
72437;SDS011;60444;43.534;-5.674;2023-04-30T10:03:52;4.47;;;1.38;;
72437;SDS011;60444;43.534;-5.674;2023-04-30T10:06:21;4.50;;;1.23;;
72437;SDS011;60444;43.534;-5.674;2023-04-30T10:08:55;4.18;;;1.33;;
72437;SDS011;60444;43.534;-5.674;2023-04-30T10:11:22;4.90;;;1.30;;
72437;SDS011;60444;43.534;-5.674;2023-04-30T10:14:13;4.75;;;1.50;;
72437;SDS011;60444;43.534;-5.674;2023-04-30T10:19:23;5.10;;;1.33;;
72437;SDS011;60444;43.534;-5.674;2023-04-30T10:21:50;4.57;;;1.40;;
72437;SDS011;60444;43.534;-5.674;2023-04-30T10:24:19;4.80;;;1.60;;
72437;SDS011;60444;43.534;-5.674;2023-04-30T10:26:45;5.72;;;1.90;;
72437;SDS011;60444;43.534;-5.674;2023-04-30T10:29:12;4.43;;;1.50;;
72437;SDS011;60444;43.534;-5.674;2023-04-30T10:31:39;5.15;;;1.83;;
72437;SDS011;60444;43.534;-5.674;2023-04-30T10:36:58;4.73;;;1.70;;
72437;SDS011;60444;43.534;-5.674;2023-04-30T10:39:28;5.70;;;1.80;;
72437;SDS011;60444;43.534;-5.674;2023-04-30T10:42:04;4.63;;;1.60;;
72437;SDS011;60444;43.534;-5.674;2023-04-30T10:44:35;4.65;;;1.30;;
72437;SDS011;60444;43.534;-5.674;2023-04-30T10:47:02;4.50;;;1.80;;
72437;SDS011;60444;43.534;-5.674;2023-04-30T10:49:28;4.60;;;1.50;;
72437;SDS011;60444;43.534;-5.674;2023-04-30T10:51:58;4.38;;;1.45;;
72437;SDS011;60444;43.534;-5.674;2023-04-30T10:54:34;5.43;;;1.80;;
72437;SDS011;60444;43.534;-5.674;2023-04-30T11:07:31;4.03;;;1.20;;
72437;SDS011;60444;43.534;-5.674;2023-04-30T11:09:57;4.30;;;1.10;;
72437;SDS011;60444;43.534;-5.674;2023-04-30T11:12:25;4.95;;;1.92;;
72437;SDS011;60444;43.534;-5.674;2023-04-30T11:14:54;4.63;;;1.50;;
72437;SDS011;60444;43.534;-5.674;2023-04-30T11:17:46;4.10;;;1.00;;
72437;SDS011;60444;43.534;-5.674;2023-04-30T11:20:13;3.35;;;0.98;;
72437;SDS011;60444;43.534;-5.674;2023-04-30T11:22:43;3.70;;;1.00;;
72437;SDS011;60444;43.534;-5.674;2023-04-30T11:25:10;4.07;;;1.35;;
72437;SDS011;60444;43.534;-5.674;2023-04-30T11:27:42;4.07;;;1.43;;
72437;SDS011;60444;43.534;-5.674;2023-04-30T11:30:15;4.72;;;1.52;;
72437;SDS011;60444;43.534;-5.674;2023-04-30T11:32:42;4.85;;;1.40;;
72437;SDS011;60444;43.534;-5.674;2023-04-30T11:35:11;4.82;;;1.50;;
72437;SDS011;60444;43.534;-5.674;2023-04-30T11:37:41;4.13;;;1.60;;
72437;SDS011;60444;43.534;-5.674;2023-04-30T11:40:09;4.20;;;1.30;;
72437;SDS011;60444;43.534;-5.674;2023-04-30T11:42:39;4.38;;;0.98;;
72437;SDS011;60444;43.534;-5.674;2023-04-30T11:47:38;4.75;;;1.45;;
72437;SDS011;60444;43.534;-5.674;2023-04-30T11:50:05;5.00;;;1.70;;
72437;SDS011;60444;43.534;-5.674;2023-04-30T11:52:35;3.53;;;0.90;;
72437;SDS011;60444;43.534;-5.674;2023-04-30T11:55:05;4.10;;;1.20;;
72437;SDS011;60444;43.534;-5.674;2023-04-30T11:57:42;4.20;;;1.20;;
72437;SDS011;60444;43.534;-5.674;2023-04-30T12:00:09;3.65;;;1.15;;
72437;SDS011;60444;43.534;-5.674;2023-04-30T12:02:36;4.18;;;1.10;;
72437;SDS011;60444;43.534;-5.674;2023-04-30T12:05:01;4.53;;;1.40;;
72437;SDS011;60444;43.534;-5.674;2023-04-30T12:07:27;3.55;;;1.10;;
72437;SDS011;60444;43.534;-5.674;2023-04-30T12:09:53;6.10;;;1.90;;
72437;SDS011;60444;43.534;-5.674;2023-04-30T12:12:26;5.00;;;1.20;;
72437;SDS011;60444;43.534;-5.674;2023-04-30T12:14:55;4.90;;;1.20;;
72437;SDS011;60444;43.534;-5.674;2023-04-30T12:17:31;5.75;;;1.55;;
72437;SDS011;60444;43.534;-5.674;2023-04-30T12:19:57;4.53;;;1.20;;
72437;SDS011;60444;43.534;-5.674;2023-04-30T12:22:23;3.58;;;1.10;;
72437;SDS011;60444;43.534;-5.674;2023-04-30T12:24:48;4.13;;;1.13;;
72437;SDS011;60444;43.534;-5.674;2023-04-30T12:27:14;4.37;;;1.20;;
72437;SDS011;60444;43.534;-5.674;2023-04-30T12:29:42;4.53;;;1.20;;
72437;SDS011;60444;43.534;-5.674;2023-04-30T12:32:09;4.35;;;1.30;;
72437;SDS011;60444;43.534;-5.674;2023-04-30T12:34:36;3.57;;;1.20;;
72437;SDS011;60444;43.534;-5.674;2023-04-30T12:37:02;3.92;;;0.95;;
72437;SDS011;60444;43.534;-5.674;2023-04-30T12:39:32;4.40;;;1.60;;
72437;SDS011;60444;43.534;-5.674;2023-04-30T12:41:59;4.65;;;1.02;;
72437;SDS011;60444;43.534;-5.674;2023-04-30T12:44:25;3.33;;;0.98;;
72437;SDS011;60444;43.534;-5.674;2023-04-30T12:46:52;4.03;;;1.07;;
72437;SDS011;60444;43.534;-5.674;2023-04-30T12:49:28;3.83;;;1.33;;
72437;SDS011;60444;43.534;-5.674;2023-04-30T12:52:04;3.92;;;1.25;;
72437;SDS011;60444;43.534;-5.674;2023-04-30T12:54:33;2.75;;;1.00;;
72437;SDS011;60444;43.534;-5.674;2023-04-30T12:57:03;4.45;;;1.15;;
72437;SDS011;60444;43.534;-5.674;2023-04-30T12:59:30;2.77;;;0.80;;
72437;SDS011;60444;43.534;-5.674;2023-04-30T13:02:06;3.53;;;0.98;;
72437;SDS011;60444;43.534;-5.674;2023-04-30T13:04:33;4.30;;;1.40;;
72437;SDS011;60444;43.534;-5.674;2023-04-30T13:07:00;4.70;;;1.20;;
72437;SDS011;60444;43.534;-5.674;2023-04-30T13:09:25;3.70;;;1.33;;
72437;SDS011;60444;43.534;-5.674;2023-04-30T13:11:51;4.05;;;1.20;;
72437;SDS011;60444;43.534;-5.674;2023-04-30T13:14:16;4.90;;;1.43;;
72437;SDS011;60444;43.534;-5.674;2023-04-30T13:16:42;4.50;;;1.30;;
72437;SDS011;60444;43.534;-5.674;2023-04-30T13:19:08;4.60;;;1.52;;
72437;SDS011;60444;43.534;-5.674;2023-04-30T13:21:33;5.20;;;1.52;;
72437;SDS011;60444;43.534;-5.674;2023-04-30T13:23:59;4.80;;;1.50;;
72437;SDS011;60444;43.534;-5.674;2023-04-30T13:26:25;4.38;;;1.40;;
72437;SDS011;60444;43.534;-5.674;2023-04-30T13:28:51;5.40;;;1.80;;
72437;SDS011;60444;43.534;-5.674;2023-04-30T13:31:17;4.23;;;1.53;;
72437;SDS011;60444;43.534;-5.674;2023-04-30T13:33:43;3.60;;;1.25;;
72437;SDS011;60444;43.534;-5.674;2023-04-30T13:36:08;4.10;;;1.10;;
72437;SDS011;60444;43.534;-5.674;2023-04-30T13:38:34;4.72;;;1.30;;
72437;SDS011;60444;43.534;-5.674;2023-04-30T13:41:00;4.30;;;1.30;;
72437;SDS011;60444;43.534;-5.674;2023-04-30T13:43:25;4.70;;;1.60;;
72437;SDS011;60444;43.534;-5.674;2023-04-30T13:45:51;5.07;;;1.20;;
72437;SDS011;60444;43.534;-5.674;2023-04-30T13:48:17;5.20;;;1.53;;
72437;SDS011;60444;43.534;-5.674;2023-04-30T13:50:42;4.30;;;1.60;;
72437;SDS011;60444;43.534;-5.674;2023-04-30T13:53:08;4.40;;;1.63;;
72437;SDS011;60444;43.534;-5.674;2023-04-30T13:55:33;5.30;;;1.47;;
72437;SDS011;60444;43.534;-5.674;2023-04-30T13:57:59;4.63;;;1.35;;
72437;SDS011;60444;43.534;-5.674;2023-04-30T14:00:25;4.47;;;1.30;;
72437;SDS011;60444;43.534;-5.674;2023-04-30T14:02:51;4.95;;;1.50;;
72437;SDS011;60444;43.534;-5.674;2023-04-30T14:05:16;5.47;;;1.40;;
72437;SDS011;60444;43.534;-5.674;2023-04-30T14:07:42;4.47;;;1.10;;
72437;SDS011;60444;43.534;-5.674;2023-04-30T14:10:08;3.83;;;1.00;;
72437;SDS011;60444;43.534;-5.674;2023-04-30T14:12:34;4.10;;;1.20;;
72437;SDS011;60444;43.534;-5.674;2023-04-30T14:14:59;3.17;;;1.08;;
72437;SDS011;60444;43.534;-5.674;2023-04-30T14:17:25;4.43;;;1.53;;
72437;SDS011;60444;43.534;-5.674;2023-04-30T14:19:53;3.38;;;0.90;;
72437;SDS011;60444;43.534;-5.674;2023-04-30T14:22:19;4.73;;;1.13;;
72437;SDS011;60444;43.534;-5.674;2023-04-30T14:24:44;3.77;;;1.33;;
72437;SDS011;60444;43.534;-5.674;2023-04-30T14:27:10;2.92;;;1.00;;
72437;SDS011;60444;43.534;-5.674;2023-04-30T14:29:35;3.73;;;1.10;;
72437;SDS011;60444;43.534;-5.674;2023-04-30T14:32:01;3.87;;;0.83;;
72437;SDS011;60444;43.534;-5.674;2023-04-30T14:34:26;4.90;;;1.23;;
72437;SDS011;60444;43.534;-5.674;2023-04-30T14:36:52;3.43;;;1.20;;
72437;SDS011;60444;43.534;-5.674;2023-04-30T14:39:17;3.07;;;1.00;;
72437;SDS011;60444;43.534;-5.674;2023-04-30T14:41:43;3.78;;;1.10;;
72437;SDS011;60444;43.534;-5.674;2023-04-30T14:44:08;4.10;;;1.20;;
72437;SDS011;60444;43.534;-5.674;2023-04-30T14:46:34;2.65;;;0.93;;
72437;SDS011;60444;43.534;-5.674;2023-04-30T14:49:00;3.03;;;0.90;;
72437;SDS011;60444;43.534;-5.674;2023-04-30T14:51:26;2.50;;;0.80;;
72437;SDS011;60444;43.534;-5.674;2023-04-30T14:53:52;3.17;;;0.88;;
72437;SDS011;60444;43.534;-5.674;2023-04-30T14:56:18;4.37;;;1.50;;
72437;SDS011;60444;43.534;-5.674;2023-04-30T14:58:46;2.60;;;0.90;;
72437;SDS011;60444;43.534;-5.674;2023-04-30T15:01:12;3.53;;;1.10;;
72437;SDS011;60444;43.534;-5.674;2023-04-30T15:03:37;3.67;;;1.40;;
72437;SDS011;60444;43.534;-5.674;2023-04-30T15:06:03;4.17;;;1.20;;
72437;SDS011;60444;43.534;-5.674;2023-04-30T15:08:28;3.70;;;1.00;;
72437;SDS011;60444;43.534;-5.674;2023-04-30T15:10:54;3.73;;;1.00;;
72437;SDS011;60444;43.534;-5.674;2023-04-30T15:13:20;3.78;;;1.20;;
72437;SDS011;60444;43.534;-5.674;2023-04-30T15:15:45;4.10;;;1.50;;